Portada
METAR-TAF:

METAR-TAF

Aeroports :

Sanya, Xina

latitud: 18-18N, longitud: 109-24E, altitud: 27 m

Observació

L'informe es va fer fa 50 minuts, a les 21:00 UTC
Vent 4 kt del Nord
Temperatura 29°C
Humitat 84%
Pressió 1008 hPa
Visibilitat 10 km o més
Escasses núvols a una alçada de 1500 ft

METAR: ZJSY 252100Z 35002MPS 9999 FEW015 29/26 Q1008 NOSIG

Hora: 05:50 (21:50 UTC)

Pronòstic

L'informe es va fer fa 6 hores i 48 minuts, a les 15:02 UTC
Pronòstic vàlid del 25 a les 18 UTC al 26 a les 18 UTC
Vent 6 kt del Sud
Visibilitat 10 km o més
Escasses núvols a una alçada de 2000 ft
Temporalment
l' 25 a les 22 UTC al 26 a les 04 UTC
Núvols disperses a una alçada de 1800 ft
Escasses núvols a una alçada de 2500 ft, Cumulonimbus.

TAF: ZJSY 251502Z 2518/2618 18003MPS 9999 FEW020 TX33/2606Z TN28/2521Z TEMPO 2522/2604 SCT018 FEW025CB

Observacions i pronòstics meteorològics de més de 4000 aeroports (METAR i TAF).

Les estacions disponibles són els punts grocs i vermells al mapa.

Posi el ratolí al punt desitjat per veure el nom de l'estació.

Feu clic per veure les observacions i els pronòstics meteorològics.

Per canviar el mapa: feu clic els botons verds amb una creu de color negre per apropar; al botó verd amb un guió per allunyar la imatge; o en les fletxes verdes per a mapes adjacents.


METAR-TAF: